createdAt,value
2024-01-05T00:00:15.765Z,9.99
2024-01-05T00:02:43.565Z,10.00
2024-01-05T00:05:11.583Z,10.00
2024-01-05T00:07:39.403Z,10.01
2024-01-05T00:10:09.812Z,10.02
2024-01-05T00:12:37.692Z,10.01
2024-01-05T00:15:05.995Z,10.00
2024-01-05T00:17:33.729Z,10.00
2024-01-05T00:20:01.510Z,10.00
2024-01-05T00:22:29.272Z,9.99
2024-01-05T00:24:57.055Z,9.99
2024-01-05T00:27:26.417Z,9.99
2024-01-05T00:29:54.233Z,9.98
2024-01-05T00:32:22.016Z,10.00
2024-01-05T00:34:49.937Z,10.00
2024-01-05T00:37:17.884Z,9.99
2024-01-05T00:39:46.136Z,9.99
2024-01-05T00:42:14.073Z,9.97
2024-01-05T00:44:43.297Z,9.97
2024-01-05T00:47:11.107Z,9.98
2024-01-05T00:49:39.629Z,9.99
2024-01-05T00:52:07.836Z,9.99
2024-01-05T00:54:35.649Z,9.99
2024-01-05T00:57:03.456Z,9.98
2024-01-05T00:59:31.230Z,9.99
2024-01-05T01:02:00.437Z,9.98
2024-01-05T01:04:28.454Z,9.98
2024-01-05T01:06:56.410Z,9.98
2024-01-05T01:09:24.222Z,9.97
2024-01-05T01:11:52.474Z,9.98
2024-01-05T01:14:20.450Z,9.97
2024-01-05T01:16:48.223Z,9.98
2024-01-05T01:19:17.525Z,9.98
2024-01-05T01:21:45.420Z,9.97
2024-01-05T01:24:13.338Z,9.97
2024-01-05T01:26:41.350Z,9.97
2024-01-05T01:29:09.888Z,9.96
2024-01-05T01:31:37.842Z,9.97
2024-01-05T01:34:06.915Z,9.98
2024-01-05T01:36:36.083Z,9.99
2024-01-05T01:39:06.067Z,10.00
2024-01-05T01:41:34.096Z,10.00
2024-01-05T01:44:01.858Z,9.99
2024-01-05T01:46:30.328Z,9.99
2024-01-05T01:48:58.359Z,9.98
2024-01-05T01:51:26.300Z,9.99
2024-01-05T01:53:55.607Z,9.98
2024-01-05T01:56:23.466Z,9.99
2024-01-05T01:58:51.240Z,10.00
2024-01-05T02:01:19.655Z,9.98
2024-01-05T02:03:47.670Z,9.98
2024-01-05T02:06:16.078Z,9.97
2024-01-05T02:08:45.379Z,9.98
2024-01-05T02:11:14.822Z,9.97
2024-01-05T02:13:42.766Z,9.98
2024-01-05T02:16:10.545Z,9.97
2024-01-05T02:18:38.387Z,9.95
2024-01-05T02:21:10.868Z,9.91
2024-01-05T02:23:40.019Z,9.93
2024-01-05T02:26:07.917Z,9.93
2024-01-05T02:28:39.881Z,9.91
2024-01-05T02:31:07.705Z,9.91
2024-01-05T02:33:35.602Z,9.91
2024-01-05T02:36:03.804Z,9.92
2024-01-05T02:38:31.588Z,9.92
2024-01-05T02:41:00.832Z,9.91
2024-01-05T02:43:28.634Z,9.90
2024-01-05T02:45:56.397Z,9.89
2024-01-05T02:48:24.355Z,9.88
2024-01-05T02:50:52.183Z,9.89
2024-01-05T02:53:20.012Z,9.89
2024-01-05T02:55:47.938Z,9.85
2024-01-05T02:58:17.027Z,9.88
2024-01-05T03:00:44.975Z,9.89
2024-01-05T03:03:12.934Z,9.88
2024-01-05T03:05:42.548Z,9.85
2024-01-05T03:08:11.114Z,9.89
2024-01-05T03:10:38.961Z,9.88
2024-01-05T03:13:06.865Z,9.87
2024-01-05T03:15:36.246Z,9.86
2024-01-05T03:18:04.648Z,9.87
2024-01-05T03:20:32.412Z,9.85
2024-01-05T03:23:00.128Z,9.87
2024-01-05T03:25:28.018Z,9.87
2024-01-05T03:27:55.766Z,9.88
2024-01-05T03:30:23.591Z,9.86
2024-01-05T03:32:52.910Z,9.86
2024-01-05T03:35:20.842Z,9.86
2024-01-05T03:37:49.369Z,9.85
2024-01-05T03:40:17.405Z,9.86
2024-01-05T03:42:45.176Z,9.81
2024-01-05T03:45:13.069Z,9.85
2024-01-05T03:47:40.886Z,9.84
2024-01-05T03:50:10.792Z,9.84
2024-01-05T03:52:38.533Z,9.85
2024-01-05T03:55:06.578Z,9.85
2024-01-05T03:57:34.472Z,9.85
2024-01-05T04:00:02.460Z,9.85
2024-01-05T04:02:30.405Z,9.85
2024-01-05T04:04:58.227Z,9.86
2024-01-05T04:07:27.383Z,9.86
2024-01-05T04:09:55.125Z,9.85
2024-01-05T04:12:22.969Z,9.85
2024-01-05T04:14:50.873Z,9.83
2024-01-05T04:17:18.653Z,9.84
2024-01-05T04:19:46.416Z,9.83
2024-01-05T04:22:14.270Z,9.84
2024-01-05T04:24:43.368Z,9.85
2024-01-05T04:27:11.193Z,9.83
2024-01-05T04:29:39.907Z,9.84
2024-01-05T04:32:08.135Z,9.83
2024-01-05T04:34:35.996Z,9.84
2024-01-05T04:37:04.723Z,9.83
2024-01-05T04:39:32.572Z,9.83
2024-01-05T04:42:01.862Z,9.83
2024-01-05T04:44:29.628Z,9.72
2024-01-05T04:46:57.467Z,9.82
2024-01-05T04:49:26.885Z,9.79
2024-01-05T04:51:54.736Z,9.79
2024-01-05T04:54:22.610Z,9.78
2024-01-05T04:56:50.377Z,9.78
2024-01-05T04:59:19.529Z,9.77
2024-01-05T05:01:47.305Z,9.78
2024-01-05T05:04:17.357Z,9.78
2024-01-05T05:06:45.261Z,9.77
2024-01-05T05:09:14.105Z,9.79
2024-01-05T05:11:42.222Z,9.81
2024-01-05T05:14:10.103Z,9.79
2024-01-05T05:16:41.096Z,9.78
2024-01-05T05:19:08.965Z,9.78
2024-01-05T05:21:36.841Z,9.77
2024-01-05T05:24:04.785Z,9.76
2024-01-05T05:26:32.541Z,9.74
2024-01-05T05:29:00.375Z,9.75
2024-01-05T05:31:28.336Z,9.75
2024-01-05T05:33:57.658Z,9.75
2024-01-05T05:36:25.566Z,9.74
2024-01-05T05:38:53.386Z,9.74
2024-01-05T05:41:21.155Z,9.72
2024-01-05T05:43:48.917Z,9.74
2024-01-05T05:46:16.681Z,9.74
2024-01-05T05:48:44.590Z,9.74
2024-01-05T05:51:13.823Z,9.74
2024-01-05T05:53:41.586Z,9.75
2024-01-05T05:56:09.685Z,9.75
2024-01-05T05:58:37.449Z,9.76
2024-01-05T06:01:06.304Z,9.76
2024-01-05T06:03:36.426Z,9.74
2024-01-05T06:06:04.645Z,9.73
2024-01-05T06:08:33.821Z,9.72
2024-01-05T06:11:01.624Z,9.72
2024-01-05T06:13:29.394Z,9.71
2024-01-05T06:15:57.210Z,9.70
2024-01-05T06:18:25.166Z,9.73
2024-01-05T06:20:53.003Z,9.71
2024-01-05T06:23:20.789Z,9.71
2024-01-05T06:25:49.878Z,9.69
2024-01-05T06:28:17.619Z,9.71
2024-01-05T06:30:45.572Z,9.69
2024-01-05T06:33:13.580Z,9.71
2024-01-05T06:35:41.481Z,9.68
2024-01-05T06:38:09.222Z,9.72
2024-01-05T06:40:37.019Z,9.72
2024-01-05T06:43:06.233Z,9.86
2024-01-05T06:45:34.227Z,9.92
2024-01-05T06:48:02.490Z,9.85
2024-01-05T06:50:31.878Z,9.81
2024-01-05T06:53:00.931Z,9.81
2024-01-05T06:55:28.702Z,10.13
2024-01-05T06:57:56.468Z,10.14
2024-01-05T07:00:26.247Z,10.09
2024-01-05T07:02:54.138Z,10.11
2024-01-05T07:05:21.991Z,10.16
2024-01-05T07:07:49.780Z,10.20
2024-01-05T07:10:17.625Z,10.24
2024-01-05T07:12:45.430Z,10.25
2024-01-05T07:15:13.296Z,10.40
2024-01-05T07:17:42.462Z,10.39
2024-01-05T07:20:13.002Z,10.56
2024-01-05T07:22:41.177Z,10.59
2024-01-05T07:25:10.799Z,10.29
2024-01-05T07:27:38.741Z,10.25
2024-01-05T07:30:08.085Z,10.24
2024-01-05T07:32:36.000Z,10.14
2024-01-05T07:35:05.793Z,10.22
2024-01-05T07:37:33.540Z,10.13
2024-01-05T07:40:01.339Z,9.98
2024-01-05T07:42:29.640Z,9.96
2024-01-05T07:44:59.034Z,9.90
2024-01-05T07:47:27.085Z,9.95
2024-01-05T07:49:54.859Z,10.07
2024-01-05T07:52:24.010Z,10.18
2024-01-05T07:54:51.797Z,9.99
2024-01-05T07:57:19.564Z,9.96
2024-01-05T07:59:47.348Z,9.99
2024-01-05T08:02:15.220Z,10.50
2024-01-05T08:04:43.001Z,10.15
2024-01-05T08:07:10.790Z,10.22
2024-01-05T08:09:42.503Z,10.23
2024-01-05T08:12:10.425Z,10.33
2024-01-05T08:14:39.090Z,10.15
2024-01-05T08:17:06.854Z,10.05
2024-01-05T08:19:34.711Z,9.97
2024-01-05T08:22:02.526Z,10.00
2024-01-05T08:24:30.467Z,9.93
2024-01-05T08:26:59.625Z,9.86
2024-01-05T08:29:27.429Z,9.85
2024-01-05T08:31:56.864Z,9.79
2024-01-05T08:34:24.772Z,9.77
2024-01-05T08:36:52.716Z,9.99
2024-01-05T08:39:20.511Z,9.80
2024-01-05T08:41:48.365Z,9.77
2024-01-05T08:44:17.570Z,9.73
2024-01-05T08:46:47.741Z,9.74
2024-01-05T08:49:15.725Z,9.86
2024-01-05T08:51:44.900Z,10.05
2024-01-05T08:54:12.814Z,10.19
2024-01-05T08:56:40.590Z,10.32
2024-01-05T08:59:08.369Z,10.53
2024-01-05T09:01:39.130Z,10.76
2024-01-05T09:04:11.626Z,10.81
2024-01-05T09:06:39.922Z,10.80
2024-01-05T09:09:08.219Z,10.85
2024-01-05T09:11:36.065Z,10.90
2024-01-05T09:14:03.901Z,10.97
2024-01-05T09:16:31.617Z,11.17
2024-01-05T09:19:00.788Z,11.23
2024-01-05T09:21:29.371Z,11.32
2024-01-05T09:23:57.215Z,11.28
2024-01-05T09:26:25.049Z,11.21
2024-01-05T09:28:53.072Z,11.00
2024-01-05T09:31:21.036Z,10.76
2024-01-05T09:33:51.048Z,10.70
2024-01-05T09:36:20.509Z,10.56
2024-01-05T09:38:48.403Z,10.50
2024-01-05T09:41:16.176Z,10.43
2024-01-05T09:43:45.693Z,10.29
2024-01-05T09:46:14.054Z,10.34
2024-01-05T09:48:48.149Z,10.43
2024-01-05T09:51:21.494Z,10.60
2024-01-05T09:53:49.350Z,10.81
2024-01-05T09:56:17.792Z,10.92
2024-01-05T09:58:47.412Z,11.03
2024-01-05T10:01:23.344Z,11.18
2024-01-05T10:03:55.925Z,11.33
2024-01-05T10:06:26.482Z,11.47
2024-01-05T10:08:56.080Z,11.54
2024-01-05T10:11:33.926Z,11.53
2024-01-05T10:14:10.631Z,11.56
2024-01-05T10:16:39.727Z,11.45
2024-01-05T10:19:16.005Z,11.31
2024-01-05T10:21:46.963Z,11.14
2024-01-05T10:24:24.197Z,10.95
2024-01-05T10:27:06.519Z,10.86
2024-01-05T10:29:37.104Z,10.66
2024-01-05T10:32:16.440Z,10.61
2024-01-05T10:34:45.945Z,10.66
2024-01-05T10:37:16.003Z,10.83
2024-01-05T10:39:47.810Z,10.93
2024-01-05T10:42:20.086Z,11.16
2024-01-05T10:44:48.336Z,11.26
2024-01-05T10:47:16.947Z,11.40
2024-01-05T10:49:49.540Z,11.54
2024-01-05T10:52:20.245Z,11.76
2024-01-05T10:54:50.173Z,11.74
2024-01-05T10:57:19.722Z,11.87
2024-01-05T10:59:47.888Z,11.83
2024-01-05T11:02:22.982Z,11.55
2024-01-05T11:04:58.984Z,11.35
2024-01-05T11:07:34.877Z,11.13
2024-01-05T11:10:20.441Z,10.97
2024-01-05T11:13:08.697Z,10.92
2024-01-05T11:15:52.402Z,10.85
2024-01-05T11:18:57.154Z,10.69
2024-01-05T11:21:34.948Z,10.58
2024-01-05T11:24:04.572Z,10.52
2024-01-05T11:26:35.927Z,10.44
2024-01-05T11:29:03.974Z,10.39
2024-01-05T11:31:54.400Z,10.35
2024-01-05T11:34:36.647Z,10.39
2024-01-05T11:37:05.980Z,10.34
2024-01-05T11:39:46.436Z,10.33
2024-01-05T11:42:38.260Z,10.46
2024-01-05T11:45:12.457Z,10.59
2024-01-05T11:47:40.811Z,10.76
2024-01-05T11:50:29.019Z,10.97
2024-01-05T11:53:14.262Z,11.07
2024-01-05T11:55:50.001Z,11.21
2024-01-05T11:58:19.211Z,11.35
2024-01-05T12:00:48.103Z,11.44
2024-01-05T12:03:17.126Z,11.46
2024-01-05T12:05:48.050Z,11.35
2024-01-05T12:08:17.763Z,11.19
2024-01-05T12:10:45.583Z,10.97
2024-01-05T12:13:14.703Z,10.88
2024-01-05T12:15:49.903Z,10.73
2024-01-05T12:18:31.470Z,10.73
2024-01-05T12:21:07.342Z,10.65
2024-01-05T12:23:36.001Z,10.56
2024-01-05T12:26:05.517Z,10.51
2024-01-05T12:28:36.423Z,10.41
2024-01-05T12:31:07.085Z,10.43
2024-01-05T12:33:40.228Z,10.39
2024-01-05T12:36:12.633Z,10.34
2024-01-05T12:38:40.716Z,10.41
2024-01-05T12:41:09.798Z,10.33
2024-01-05T12:43:39.303Z,10.28
2024-01-05T12:46:07.508Z,10.20
2024-01-05T12:48:35.549Z,10.15
2024-01-05T12:51:08.057Z,10.40
2024-01-05T12:53:36.563Z,10.58
2024-01-05T12:56:09.059Z,10.77
2024-01-05T12:58:42.210Z,10.96
2024-01-05T13:01:18.165Z,11.14
2024-01-05T13:03:53.980Z,11.29
2024-01-05T13:06:24.016Z,11.31
2024-01-05T13:08:52.163Z,11.25
2024-01-05T13:11:21.926Z,11.16
2024-01-05T13:13:52.068Z,11.00
2024-01-05T13:16:20.156Z,10.91
2024-01-05T13:18:48.249Z,10.71
2024-01-05T13:21:16.395Z,10.60
2024-01-05T13:23:45.149Z,10.55
2024-01-05T13:26:13.128Z,10.57
2024-01-05T13:28:42.022Z,10.49
2024-01-05T13:31:11.715Z,10.47
2024-01-05T13:33:39.772Z,10.44
2024-01-05T13:36:07.959Z,10.43
2024-01-05T13:38:35.757Z,10.38
2024-01-05T13:41:05.493Z,10.42
2024-01-05T13:43:33.280Z,10.41
2024-01-05T13:46:01.109Z,10.38
2024-01-05T13:48:30.426Z,10.36
2024-01-05T13:50:58.343Z,10.36
2024-01-05T13:53:26.244Z,10.40
2024-01-05T13:55:54.025Z,10.39
2024-01-05T13:58:21.991Z,10.43
2024-01-05T14:00:51.267Z,10.39
2024-01-05T14:03:19.287Z,10.39
2024-01-05T14:05:48.483Z,10.44
2024-01-05T14:08:16.704Z,10.38
2024-01-05T14:10:44.491Z,10.34
2024-01-05T14:13:12.287Z,10.32
2024-01-05T14:15:40.117Z,10.29
2024-01-05T14:18:08.240Z,10.28
2024-01-05T14:20:36.185Z,10.23
2024-01-05T14:23:07.494Z,10.23
2024-01-05T14:25:35.320Z,10.22
2024-01-05T14:28:03.448Z,10.23
2024-01-05T14:30:31.302Z,10.23
2024-01-05T14:32:59.224Z,10.22
2024-01-05T14:35:27.043Z,10.34
2024-01-05T14:37:54.807Z,10.47
2024-01-05T14:40:24.537Z,10.64
2024-01-05T14:42:52.375Z,10.81
2024-01-05T14:45:20.178Z,10.96
2024-01-05T14:47:47.996Z,11.13
2024-01-05T14:50:15.985Z,11.17
2024-01-05T14:52:52.256Z,11.14
2024-01-05T14:55:28.815Z,11.01
2024-01-05T14:57:56.583Z,10.89
2024-01-05T15:00:24.411Z,10.79
2024-01-05T15:02:52.208Z,10.71
2024-01-05T15:05:20.121Z,10.65
2024-01-05T15:07:47.907Z,10.66
2024-01-05T15:10:15.768Z,10.56
2024-01-05T15:12:44.985Z,10.50
2024-01-05T15:15:12.859Z,10.45
2024-01-05T15:17:42.033Z,10.40
2024-01-05T15:20:11.507Z,10.36
2024-01-05T15:22:39.304Z,10.32
2024-01-05T15:25:07.282Z,10.28
2024-01-05T15:27:38.062Z,10.25
2024-01-05T15:30:08.562Z,10.21
2024-01-05T15:32:36.466Z,10.17
2024-01-05T15:35:04.712Z,10.15
2024-01-05T15:37:32.791Z,10.15
2024-01-05T15:40:01.378Z,10.06
2024-01-05T15:42:29.689Z,10.12
2024-01-05T15:44:57.654Z,10.09
2024-01-05T15:47:28.784Z,10.10
2024-01-05T15:49:56.727Z,10.07
2024-01-05T15:52:24.549Z,10.04
2024-01-05T15:54:52.395Z,10.04
2024-01-05T15:57:21.183Z,10.02
2024-01-05T15:59:49.118Z,10.03
2024-01-05T16:02:16.898Z,10.04
2024-01-05T16:04:46.035Z,10.03
2024-01-05T16:07:16.077Z,10.02
2024-01-05T16:09:43.938Z,9.96
2024-01-05T16:12:11.802Z,9.97
2024-01-05T16:14:48.080Z,9.94
2024-01-05T16:17:15.953Z,9.93
2024-01-05T16:19:43.764Z,9.93
2024-01-05T16:22:12.892Z,9.93
2024-01-05T16:24:41.568Z,9.92
2024-01-05T16:27:09.422Z,9.89
2024-01-05T16:29:37.171Z,9.89
2024-01-05T16:32:05.386Z,9.87
2024-01-05T16:34:33.223Z,9.76
2024-01-05T16:37:01.096Z,9.85
2024-01-05T16:39:30.256Z,9.85
2024-01-05T16:41:58.049Z,9.79
2024-01-05T16:44:25.885Z,9.85
2024-01-05T16:46:53.672Z,9.84
2024-01-05T16:49:21.575Z,9.84
2024-01-05T16:51:49.589Z,9.82
2024-01-05T16:54:18.540Z,9.81
2024-01-05T16:56:51.473Z,9.82
2024-01-05T16:59:22.091Z,9.82
2024-01-05T17:01:49.902Z,9.84
2024-01-05T17:04:17.859Z,9.83
2024-01-05T17:06:50.158Z,9.85
2024-01-05T17:09:18.085Z,9.85
2024-01-05T17:11:47.213Z,9.87
2024-01-05T17:14:15.021Z,9.99
2024-01-05T17:16:47.114Z,10.17
2024-01-05T17:19:15.026Z,10.35
2024-01-05T17:21:44.428Z,10.54
2024-01-05T17:24:12.251Z,10.71
2024-01-05T17:26:40.565Z,10.87
2024-01-05T17:29:09.790Z,11.06
2024-01-05T17:31:37.774Z,11.16
2024-01-05T17:34:05.869Z,11.20
2024-01-05T17:36:37.941Z,11.05
2024-01-05T17:39:06.176Z,10.94
2024-01-05T17:41:34.066Z,10.81
2024-01-05T17:44:01.876Z,10.70
2024-01-05T17:46:31.078Z,10.59
2024-01-05T17:48:58.044Z,10.50
2024-01-05T17:51:33.398Z,10.44
2024-01-05T17:54:01.613Z,10.38
2024-01-05T17:56:34.180Z,10.33
2024-01-05T17:59:04.823Z,10.28
2024-01-05T18:01:34.776Z,10.25
2024-01-05T18:04:02.885Z,10.20
2024-01-05T18:06:30.796Z,10.16
2024-01-05T18:08:59.585Z,10.15
2024-01-05T18:11:28.574Z,10.13
2024-01-05T18:13:56.922Z,10.11
2024-01-05T18:16:25.547Z,10.09
2024-01-05T18:18:55.230Z,10.07
2024-01-05T18:21:25.785Z,9.98
2024-01-05T18:23:54.808Z,10.06
2024-01-05T18:26:23.656Z,10.09
2024-01-05T18:28:52.238Z,10.08
2024-01-05T18:31:25.689Z,10.08
2024-01-05T18:33:56.777Z,10.06
2024-01-05T18:36:25.149Z,10.07
2024-01-05T18:38:53.379Z,9.99
2024-01-05T18:41:22.426Z,10.04
2024-01-05T18:43:50.844Z,10.01
2024-01-05T18:46:18.723Z,10.00
2024-01-05T18:48:46.671Z,9.99
2024-01-05T18:51:16.271Z,10.11
2024-01-05T18:53:44.668Z,10.28
2024-01-05T18:56:13.729Z,10.45
2024-01-05T18:58:41.930Z,10.70
2024-01-05T19:01:11.654Z,10.92
2024-01-05T19:03:39.648Z,11.09
2024-01-05T19:06:08.291Z,11.25
2024-01-05T19:08:38.534Z,11.28
2024-01-05T19:11:06.624Z,11.18
2024-01-05T19:13:34.553Z,11.04
2024-01-05T19:16:02.736Z,10.91
2024-01-05T19:18:31.377Z,10.78
2024-01-05T19:20:59.392Z,10.65
2024-01-05T19:23:27.178Z,10.57
2024-01-05T19:25:56.315Z,10.50
2024-01-05T19:28:24.299Z,10.43
2024-01-05T19:30:52.238Z,10.39
2024-01-05T19:33:20.228Z,10.35
2024-01-05T19:35:49.538Z,10.31
2024-01-05T19:38:17.557Z,10.27
2024-01-05T19:40:45.516Z,10.24
2024-01-05T19:43:15.743Z,10.21
2024-01-05T19:45:44.041Z,10.18
2024-01-05T19:48:12.214Z,10.13
2024-01-05T19:50:40.225Z,10.13
2024-01-05T19:53:08.024Z,10.10
2024-01-05T19:55:35.836Z,10.07
2024-01-05T19:58:03.786Z,10.06
2024-01-05T20:00:33.087Z,10.05
2024-01-05T20:03:01.022Z,10.04
2024-01-05T20:05:28.855Z,10.03
2024-01-05T20:07:59.754Z,10.00
2024-01-05T20:10:28.741Z,10.00
2024-01-05T20:12:57.126Z,10.00
2024-01-05T20:15:26.501Z,10.00
2024-01-05T20:17:56.538Z,9.98
2024-01-05T20:20:24.445Z,9.96
2024-01-05T20:22:52.367Z,9.93
2024-01-05T20:25:20.875Z,9.94
2024-01-05T20:27:49.786Z,9.95
2024-01-05T20:30:18.607Z,9.94
2024-01-05T20:32:46.483Z,9.93
2024-01-05T20:35:15.781Z,9.93
2024-01-05T20:37:43.568Z,9.94
2024-01-05T20:40:11.754Z,9.90
2024-01-05T20:42:39.740Z,9.92
2024-01-05T20:45:12.255Z,9.92
2024-01-05T20:47:40.593Z,9.91
2024-01-05T20:50:09.773Z,9.90
2024-01-05T20:52:39.018Z,9.90
2024-01-05T20:55:07.746Z,9.91
2024-01-05T20:57:35.609Z,9.92
2024-01-05T21:00:03.619Z,9.92
2024-01-05T21:02:31.507Z,9.93
2024-01-05T21:04:59.644Z,9.92
2024-01-05T21:07:27.566Z,9.89
2024-01-05T21:09:56.947Z,9.92
2024-01-05T21:12:24.779Z,9.90
2024-01-05T21:14:52.587Z,9.91
2024-01-05T21:17:20.493Z,9.90
2024-01-05T21:19:48.716Z,9.88
2024-01-05T21:22:17.620Z,9.88
2024-01-05T21:24:46.724Z,9.86
2024-01-05T21:27:16.941Z,9.86
2024-01-05T21:29:45.643Z,9.83
2024-01-05T21:32:14.422Z,9.84
2024-01-05T21:34:43.470Z,9.81
2024-01-05T21:37:13.718Z,9.83
2024-01-05T21:39:41.827Z,9.83
2024-01-05T21:42:11.075Z,9.83
2024-01-05T21:44:40.258Z,9.76
2024-01-05T21:47:08.053Z,9.82
2024-01-05T21:49:38.547Z,9.81
2024-01-05T21:52:07.320Z,9.75
2024-01-05T21:54:35.393Z,9.78
2024-01-05T21:57:03.343Z,9.71
2024-01-05T21:59:33.623Z,9.78
2024-01-05T22:02:03.913Z,9.77
2024-01-05T22:04:33.800Z,9.76
2024-01-05T22:07:02.281Z,9.73
2024-01-05T22:09:30.217Z,9.76
2024-01-05T22:11:58.370Z,9.74
2024-01-05T22:14:27.030Z,9.75
2024-01-05T22:16:55.839Z,9.74
2024-01-05T22:19:25.286Z,9.74
2024-01-05T22:21:53.199Z,9.72
2024-01-05T22:24:21.456Z,9.73
2024-01-05T22:26:49.834Z,9.71
2024-01-05T22:29:17.628Z,9.70
2024-01-05T22:31:47.262Z,9.71
2024-01-05T22:34:15.435Z,9.70
2024-01-05T22:36:44.703Z,9.68
2024-01-05T22:39:13.715Z,9.69
2024-01-05T22:41:41.676Z,9.67
2024-01-05T22:44:09.500Z,9.67
2024-01-05T22:46:37.848Z,9.63
2024-01-05T22:49:05.746Z,9.67
2024-01-05T22:51:33.795Z,9.67
2024-01-05T22:54:03.093Z,9.67
2024-01-05T22:56:30.905Z,9.66
2024-01-05T22:58:58.657Z,9.65
2024-01-05T23:01:26.525Z,9.66
2024-01-05T23:03:54.720Z,9.65
2024-01-05T23:06:24.847Z,9.64
2024-01-05T23:08:52.869Z,9.64
2024-01-05T23:11:22.066Z,9.64
2024-01-05T23:13:49.894Z,9.63
2024-01-05T23:16:17.709Z,9.62
2024-01-05T23:18:45.740Z,9.63
2024-01-05T23:21:13.680Z,9.63
2024-01-05T23:23:41.910Z,9.59
2024-01-05T23:26:15.996Z,9.59
2024-01-05T23:28:45.295Z,9.60
2024-01-05T23:31:13.286Z,9.58
2024-01-05T23:33:41.445Z,9.57
2024-01-05T23:36:09.824Z,9.57
2024-01-05T23:38:37.667Z,9.55
2024-01-05T23:41:05.682Z,9.56
2024-01-05T23:43:33.607Z,9.56
2024-01-05T23:46:02.744Z,9.55
2024-01-05T23:48:30.644Z,9.55
2024-01-05T23:50:58.669Z,9.53
2024-01-05T23:53:27.267Z,9.52
2024-01-05T23:55:55.058Z,9.51
2024-01-05T23:58:22.874Z,9.46
